Terminal Aerodrome Forecast
Issued by NWS

Home | Current Version | Previous Version | Graphics & Text | Print | Product List | Glossary On
Versions: 1 2 3 4 5 6 7 8 9 10 11 12 13 14 15 16 17 18 19 20
000
FTUS43 KGRB 040224 AAA
TAFAUW
TAF AMD
KAUW 040224Z 0402/0424 00000KT P6SM OVC025
     FM040400 00000KT P6SM BKN035 OVC080
     FM041000 14005KT P6SM OVC020 PROB30 0411/0413 4SM -SN OVC012
     FM041300 15005KT 2SM -SN OVC010
     FM041500 14006KT 1 1/2SM -SN OVC008
      TEMPO 0416/0420 3/4SM -SN OVC004
     FM042200 16008KT 2SM -SN OVC008
      TEMPO 0422/0424 4SM -SN=

USA.gov is the U.S. government's official web portal to all federal, state and local government web resources and services.